Yankton Indian Reservation, South Dakota
Current Conditions -  °F | °C
As of 6:52 AM on Saturday 25 Oct 2014 (Local Time) from KVTN Reporting Station
Clear Clear  
Wind Chill: 38°   Ceiling: Unl
Heat Index: 41°   Visibility: 10mi
Dew Point: 33°   Wind: 5mph
Humidity: 73%   Direction: 10°N
Pressure: 30.14"   Gusts: NA
Location:  43.2328°N, 100.853°W
Report Text: KVTN 251152Z AUTO 01004KT 10SM CLR 05/01 A3014 RMK AO2 SLP204 T00500006 10117 20044 53002
Loading
Personal Weather Stations






























Interactive Weather Map
Tropical Storm Tracking
New forecast layout! Learn more

10-Day Weather Forecast

Advertisements
Track Severe Weather on mobile